sensor_id;sensor_type;location;lat;lon;timestamp;P1;durP1;ratioP1;P2;durP2;ratioP2
34737;SDS011;39910;47.154;27.614;2023-04-03T00:01:57;9.13;;;8.73;;
34737;SDS011;39910;47.154;27.614;2023-04-03T00:04:22;9.15;;;8.75;;
34737;SDS011;39910;47.154;27.614;2023-04-03T00:06:47;9.00;;;8.60;;
34737;SDS011;39910;47.154;27.614;2023-04-03T00:09:13;9.30;;;8.90;;
34737;SDS011;39910;47.154;27.614;2023-04-03T00:11:39;9.52;;;9.10;;
34737;SDS011;39910;47.154;27.614;2023-04-03T00:14:04;9.20;;;8.80;;
34737;SDS011;39910;47.154;27.614;2023-04-03T00:16:30;9.07;;;8.68;;
34737;SDS011;39910;47.154;27.614;2023-04-03T00:18:55;9.35;;;8.95;;
34737;SDS011;39910;47.154;27.614;2023-04-03T00:21:20;9.18;;;8.77;;
34737;SDS011;39910;47.154;27.614;2023-04-03T00:23:46;9.70;;;9.20;;
34737;SDS011;39910;47.154;27.614;2023-04-03T00:26:11;9.18;;;8.77;;
34737;SDS011;39910;47.154;27.614;2023-04-03T00:28:37;9.80;;;9.30;;
34737;SDS011;39910;47.154;27.614;2023-04-03T00:31:02;8.98;;;8.57;;
34737;SDS011;39910;47.154;27.614;2023-04-03T00:33:28;9.23;;;8.82;;
34737;SDS011;39910;47.154;27.614;2023-04-03T00:35:53;9.35;;;8.95;;
34737;SDS011;39910;47.154;27.614;2023-04-03T00:38:18;9.50;;;9.10;;
34737;SDS011;39910;47.154;27.614;2023-04-03T00:40:45;9.18;;;8.77;;
34737;SDS011;39910;47.154;27.614;2023-04-03T00:43:14;8.85;;;8.45;;
34737;SDS011;39910;47.154;27.614;2023-04-03T00:45:41;9.45;;;9.05;;
34737;SDS011;39910;47.154;27.614;2023-04-03T00:48:08;9.38;;;8.95;;
34737;SDS011;39910;47.154;27.614;2023-04-03T00:50:35;9.90;;;9.40;;
34737;SDS011;39910;47.154;27.614;2023-04-03T00:53:02;9.18;;;8.77;;
34737;SDS011;39910;47.154;27.614;2023-04-03T00:55:28;9.18;;;8.77;;
34737;SDS011;39910;47.154;27.614;2023-04-03T00:57:54;9.07;;;8.68;;
34737;SDS011;39910;47.154;27.614;2023-04-03T01:00:20;9.73;;;9.23;;
34737;SDS011;39910;47.154;27.614;2023-04-03T01:02:47;10.18;;;9.68;;
34737;SDS011;39910;47.154;27.614;2023-04-03T01:05:13;8.93;;;8.52;;
34737;SDS011;39910;47.154;27.614;2023-04-03T01:07:40;9.20;;;8.80;;
34737;SDS011;39910;47.154;27.614;2023-04-03T01:10:07;9.13;;;8.73;;
34737;SDS011;39910;47.154;27.614;2023-04-03T01:12:38;9.60;;;9.10;;
34737;SDS011;39910;47.154;27.614;2023-04-03T01:22:32;9.30;;;8.90;;
34737;SDS011;39910;47.154;27.614;2023-04-03T01:24:58;9.88;;;9.38;;
34737;SDS011;39910;47.154;27.614;2023-04-03T01:27:23;9.30;;;8.90;;
34737;SDS011;39910;47.154;27.614;2023-04-03T01:29:49;9.30;;;8.90;;
34737;SDS011;39910;47.154;27.614;2023-04-03T01:32:14;9.27;;;8.88;;
34737;SDS011;39910;47.154;27.614;2023-04-03T01:34:39;10.18;;;9.68;;
34737;SDS011;39910;47.154;27.614;2023-04-03T01:37:05;9.85;;;9.35;;
34737;SDS011;39910;47.154;27.614;2023-04-03T01:39:30;8.90;;;8.50;;
34737;SDS011;39910;47.154;27.614;2023-04-03T01:41:55;9.50;;;9.10;;
34737;SDS011;39910;47.154;27.614;2023-04-03T01:44:21;9.10;;;8.70;;
34737;SDS011;39910;47.154;27.614;2023-04-03T01:46:46;9.38;;;8.98;;
34737;SDS011;39910;47.154;27.614;2023-04-03T01:49:11;9.48;;;9.07;;
34737;SDS011;39910;47.154;27.614;2023-04-03T01:51:37;10.93;;;10.32;;
34737;SDS011;39910;47.154;27.614;2023-04-03T01:54:02;9.50;;;9.10;;
34737;SDS011;39910;47.154;27.614;2023-04-03T01:56:27;8.80;;;8.40;;
34737;SDS011;39910;47.154;27.614;2023-04-03T01:58:53;9.68;;;9.18;;
34737;SDS011;39910;47.154;27.614;2023-04-03T02:01:18;10.02;;;9.52;;
34737;SDS011;39910;47.154;27.614;2023-04-03T02:03:44;9.75;;;9.25;;
34737;SDS011;39910;47.154;27.614;2023-04-03T02:06:10;9.00;;;8.60;;
34737;SDS011;39910;47.154;27.614;2023-04-03T02:08:35;10.23;;;9.73;;
34737;SDS011;39910;47.154;27.614;2023-04-03T02:11:01;9.43;;;9.02;;
34737;SDS011;39910;47.154;27.614;2023-04-03T02:13:26;9.55;;;9.15;;
34737;SDS011;39910;47.154;27.614;2023-04-03T02:15:51;9.52;;;9.10;;
34737;SDS011;39910;47.154;27.614;2023-04-03T02:18:17;9.10;;;8.70;;
34737;SDS011;39910;47.154;27.614;2023-04-03T02:20:43;9.52;;;9.10;;
34737;SDS011;39910;47.154;27.614;2023-04-03T02:23:08;10.02;;;9.52;;
34737;SDS011;39910;47.154;27.614;2023-04-03T02:25:34;9.63;;;9.18;;
34737;SDS011;39910;47.154;27.614;2023-04-03T02:27:59;9.77;;;9.27;;
34737;SDS011;39910;47.154;27.614;2023-04-03T02:30:25;9.32;;;8.93;;
34737;SDS011;39910;47.154;27.614;2023-04-03T02:32:51;9.38;;;8.98;;
34737;SDS011;39910;47.154;27.614;2023-04-03T02:35:16;9.05;;;8.65;;
34737;SDS011;39910;47.154;27.614;2023-04-03T02:37:41;9.77;;;9.27;;
34737;SDS011;39910;47.154;27.614;2023-04-03T02:40:07;9.57;;;9.10;;
34737;SDS011;39910;47.154;27.614;2023-04-03T02:42:32;9.50;;;9.10;;
34737;SDS011;39910;47.154;27.614;2023-04-03T02:44:58;9.20;;;8.80;;
34737;SDS011;39910;47.154;27.614;2023-04-03T02:47:25;9.02;;;8.63;;
34737;SDS011;39910;47.154;27.614;2023-04-03T02:49:50;9.15;;;8.75;;
34737;SDS011;39910;47.154;27.614;2023-04-03T02:52:17;9.70;;;9.20;;
34737;SDS011;39910;47.154;27.614;2023-04-03T02:54:43;9.90;;;9.40;;
34737;SDS011;39910;47.154;27.614;2023-04-03T02:57:08;9.25;;;8.85;;
34737;SDS011;39910;47.154;27.614;2023-04-03T02:59:34;9.48;;;9.07;;
34737;SDS011;39910;47.154;27.614;2023-04-03T03:01:59;9.18;;;8.77;;
34737;SDS011;39910;47.154;27.614;2023-04-03T03:04:25;9.45;;;9.05;;
34737;SDS011;39910;47.154;27.614;2023-04-03T03:06:50;9.80;;;9.30;;
34737;SDS011;39910;47.154;27.614;2023-04-03T03:09:15;9.63;;;9.13;;
34737;SDS011;39910;47.154;27.614;2023-04-03T03:11:41;9.18;;;8.77;;
34737;SDS011;39910;47.154;27.614;2023-04-03T03:14:06;9.40;;;9.00;;
34737;SDS011;39910;47.154;27.614;2023-04-03T03:16:31;9.25;;;8.85;;
34737;SDS011;39910;47.154;27.614;2023-04-03T03:18:57;9.95;;;9.45;;
34737;SDS011;39910;47.154;27.614;2023-04-03T03:21:22;9.75;;;9.25;;
34737;SDS011;39910;47.154;27.614;2023-04-03T03:23:47;9.77;;;9.27;;
34737;SDS011;39910;47.154;27.614;2023-04-03T03:26:13;9.30;;;8.90;;
34737;SDS011;39910;47.154;27.614;2023-04-03T03:28:38;9.80;;;9.30;;
34737;SDS011;39910;47.154;27.614;2023-04-03T03:31:04;9.77;;;9.27;;
34737;SDS011;39910;47.154;27.614;2023-04-03T03:33:30;10.35;;;9.85;;
34737;SDS011;39910;47.154;27.614;2023-04-03T03:35:56;9.98;;;9.48;;
34737;SDS011;39910;47.154;27.614;2023-04-03T03:38:22;9.30;;;8.90;;
34737;SDS011;39910;47.154;27.614;2023-04-03T03:40:48;9.55;;;9.07;;
34737;SDS011;39910;47.154;27.614;2023-04-03T03:43:14;9.65;;;9.15;;
34737;SDS011;39910;47.154;27.614;2023-04-03T03:45:39;9.93;;;9.43;;
34737;SDS011;39910;47.154;27.614;2023-04-03T03:48:05;9.10;;;8.70;;
34737;SDS011;39910;47.154;27.614;2023-04-03T03:50:30;9.70;;;9.20;;
34737;SDS011;39910;47.154;27.614;2023-04-03T03:52:55;9.30;;;8.90;;
34737;SDS011;39910;47.154;27.614;2023-04-03T03:55:21;10.15;;;9.65;;
34737;SDS011;39910;47.154;27.614;2023-04-03T03:57:46;10.27;;;9.77;;
34737;SDS011;39910;47.154;27.614;2023-04-03T04:00:12;9.45;;;9.00;;
34737;SDS011;39910;47.154;27.614;2023-04-03T04:02:37;9.60;;;9.10;;
34737;SDS011;39910;47.154;27.614;2023-04-03T04:05:03;10.02;;;9.52;;
34737;SDS011;39910;47.154;27.614;2023-04-03T04:07:28;10.00;;;9.50;;
34737;SDS011;39910;47.154;27.614;2023-04-03T04:09:54;9.73;;;9.23;;
34737;SDS011;39910;47.154;27.614;2023-04-03T04:12:19;10.05;;;9.55;;
34737;SDS011;39910;47.154;27.614;2023-04-03T04:14:45;9.93;;;9.43;;
34737;SDS011;39910;47.154;27.614;2023-04-03T04:17:12;9.98;;;9.48;;
34737;SDS011;39910;47.154;27.614;2023-04-03T04:19:37;10.90;;;10.30;;
34737;SDS011;39910;47.154;27.614;2023-04-03T04:22:03;10.20;;;9.70;;
34737;SDS011;39910;47.154;27.614;2023-04-03T04:24:28;9.77;;;9.30;;
34737;SDS011;39910;47.154;27.614;2023-04-03T04:26:53;9.98;;;9.48;;
34737;SDS011;39910;47.154;27.614;2023-04-03T04:29:19;9.20;;;8.80;;
34737;SDS011;39910;47.154;27.614;2023-04-03T04:31:45;9.80;;;9.30;;
34737;SDS011;39910;47.154;27.614;2023-04-03T04:34:10;10.38;;;9.82;;
34737;SDS011;39910;47.154;27.614;2023-04-03T04:36:37;10.60;;;10.00;;
34737;SDS011;39910;47.154;27.614;2023-04-03T04:39:03;9.88;;;9.38;;
34737;SDS011;39910;47.154;27.614;2023-04-03T04:41:28;9.77;;;9.27;;
34737;SDS011;39910;47.154;27.614;2023-04-03T04:43:53;9.15;;;8.75;;
34737;SDS011;39910;47.154;27.614;2023-04-03T04:46:19;10.55;;;10.00;;
34737;SDS011;39910;47.154;27.614;2023-04-03T04:48:45;10.00;;;9.50;;
34737;SDS011;39910;47.154;27.614;2023-04-03T04:51:10;9.40;;;9.00;;
34737;SDS011;39910;47.154;27.614;2023-04-03T04:53:36;9.45;;;9.00;;
34737;SDS011;39910;47.154;27.614;2023-04-03T04:56:01;11.25;;;10.65;;
34737;SDS011;39910;47.154;27.614;2023-04-03T04:58:27;9.93;;;9.43;;
34737;SDS011;39910;47.154;27.614;2023-04-03T05:01:02;9.57;;;9.10;;
34737;SDS011;39910;47.154;27.614;2023-04-03T05:03:28;9.40;;;9.00;;
34737;SDS011;39910;47.154;27.614;2023-04-03T05:05:53;9.80;;;9.30;;
34737;SDS011;39910;47.154;27.614;2023-04-03T05:08:18;9.77;;;9.27;;
34737;SDS011;39910;47.154;27.614;2023-04-03T05:10:47;10.23;;;9.73;;
34737;SDS011;39910;47.154;27.614;2023-04-03T05:13:12;10.02;;;9.52;;
34737;SDS011;39910;47.154;27.614;2023-04-03T05:15:38;9.45;;;9.05;;
34737;SDS011;39910;47.154;27.614;2023-04-03T05:18:03;10.07;;;9.57;;
34737;SDS011;39910;47.154;27.614;2023-04-03T05:20:29;9.40;;;9.00;;
34737;SDS011;39910;47.154;27.614;2023-04-03T05:22:55;9.50;;;9.02;;
34737;SDS011;39910;47.154;27.614;2023-04-03T05:25:20;9.88;;;9.38;;
34737;SDS011;39910;47.154;27.614;2023-04-03T05:27:45;10.43;;;9.88;;
34737;SDS011;39910;47.154;27.614;2023-04-03T05:30:11;9.70;;;9.20;;
34737;SDS011;39910;47.154;27.614;2023-04-03T05:32:36;9.93;;;9.43;;
34737;SDS011;39910;47.154;27.614;2023-04-03T05:35:02;10.10;;;9.60;;
34737;SDS011;39910;47.154;27.614;2023-04-03T05:37:27;9.90;;;9.40;;
34737;SDS011;39910;47.154;27.614;2023-04-03T05:39:52;10.25;;;9.75;;
34737;SDS011;39910;47.154;27.614;2023-04-03T05:42:18;9.05;;;8.65;;
34737;SDS011;39910;47.154;27.614;2023-04-03T05:44:43;9.52;;;9.10;;
34737;SDS011;39910;47.154;27.614;2023-04-03T05:47:09;10.40;;;9.88;;
34737;SDS011;39910;47.154;27.614;2023-04-03T05:49:34;10.27;;;9.77;;
34737;SDS011;39910;47.154;27.614;2023-04-03T05:52:00;10.55;;;10.05;;
34737;SDS011;39910;47.154;27.614;2023-04-03T05:54:27;9.70;;;9.20;;
34737;SDS011;39910;47.154;27.614;2023-04-03T05:56:54;10.23;;;9.73;;
34737;SDS011;39910;47.154;27.614;2023-04-03T05:59:19;9.55;;;9.10;;
34737;SDS011;39910;47.154;27.614;2023-04-03T06:01:45;12.30;;;11.60;;
34737;SDS011;39910;47.154;27.614;2023-04-03T06:04:11;11.63;;;10.93;;
34737;SDS011;39910;47.154;27.614;2023-04-03T06:06:44;10.85;;;10.25;;
34737;SDS011;39910;47.154;27.614;2023-04-03T06:09:10;11.38;;;10.77;;
34737;SDS011;39910;47.154;27.614;2023-04-03T06:11:35;10.75;;;10.15;;
34737;SDS011;39910;47.154;27.614;2023-04-03T06:14:00;11.07;;;10.48;;
34737;SDS011;39910;47.154;27.614;2023-04-03T06:16:26;10.80;;;10.20;;
34737;SDS011;39910;47.154;27.614;2023-04-03T06:18:51;10.82;;;10.23;;
34737;SDS011;39910;47.154;27.614;2023-04-03T06:21:17;11.10;;;10.50;;
34737;SDS011;39910;47.154;27.614;2023-04-03T06:23:42;13.13;;;12.30;;
34737;SDS011;39910;47.154;27.614;2023-04-03T06:26:07;12.43;;;11.68;;
34737;SDS011;39910;47.154;27.614;2023-04-03T06:28:33;11.15;;;10.55;;
34737;SDS011;39910;47.154;27.614;2023-04-03T06:30:58;10.18;;;9.68;;
34737;SDS011;39910;47.154;27.614;2023-04-03T06:33:23;10.57;;;10.00;;
34737;SDS011;39910;47.154;27.614;2023-04-03T06:35:49;11.25;;;10.65;;
34737;SDS011;39910;47.154;27.614;2023-04-03T06:38:14;11.38;;;10.75;;
34737;SDS011;39910;47.154;27.614;2023-04-03T06:40:40;10.80;;;10.20;;
34737;SDS011;39910;47.154;27.614;2023-04-03T06:43:05;10.63;;;10.02;;
34737;SDS011;39910;47.154;27.614;2023-04-03T06:45:30;10.70;;;10.10;;
34737;SDS011;39910;47.154;27.614;2023-04-03T06:47:56;10.75;;;10.15;;
34737;SDS011;39910;47.154;27.614;2023-04-03T06:50:21;11.77;;;11.07;;
34737;SDS011;39910;47.154;27.614;2023-04-03T06:52:47;11.25;;;10.65;;
34737;SDS011;39910;47.154;27.614;2023-04-03T06:55:12;11.07;;;10.48;;
34737;SDS011;39910;47.154;27.614;2023-04-03T06:57:37;11.48;;;10.85;;
34737;SDS011;39910;47.154;27.614;2023-04-03T07:00:03;10.43;;;9.93;;
34737;SDS011;39910;47.154;27.614;2023-04-03T07:02:29;10.82;;;10.23;;
34737;SDS011;39910;47.154;27.614;2023-04-03T07:04:55;11.07;;;10.48;;
34737;SDS011;39910;47.154;27.614;2023-04-03T07:07:21;9.93;;;9.43;;
34737;SDS011;39910;47.154;27.614;2023-04-03T07:09:47;10.77;;;10.18;;
34737;SDS011;39910;47.154;27.614;2023-04-03T07:12:13;10.57;;;9.98;;
34737;SDS011;39910;47.154;27.614;2023-04-03T07:14:38;10.38;;;9.88;;
34737;SDS011;39910;47.154;27.614;2023-04-03T07:17:04;11.73;;;11.02;;
34737;SDS011;39910;47.154;27.614;2023-04-03T07:19:29;12.52;;;11.82;;
34737;SDS011;39910;47.154;27.614;2023-04-03T07:21:55;10.40;;;9.90;;
34737;SDS011;39910;47.154;27.614;2023-04-03T07:24:20;10.35;;;9.85;;
34737;SDS011;39910;47.154;27.614;2023-04-03T07:26:49;10.98;;;10.38;;
34737;SDS011;39910;47.154;27.614;2023-04-03T07:29:14;11.15;;;10.55;;
34737;SDS011;39910;47.154;27.614;2023-04-03T07:31:39;11.32;;;10.73;;
34737;SDS011;39910;47.154;27.614;2023-04-03T07:34:06;15.07;;;14.07;;
34737;SDS011;39910;47.154;27.614;2023-04-03T07:36:31;10.35;;;9.85;;
34737;SDS011;39910;47.154;27.614;2023-04-03T07:38:58;10.23;;;9.73;;
34737;SDS011;39910;47.154;27.614;2023-04-03T07:41:23;10.63;;;10.05;;
34737;SDS011;39910;47.154;27.614;2023-04-03T07:43:51;10.73;;;10.18;;
34737;SDS011;39910;47.154;27.614;2023-04-03T07:46:17;10.45;;;9.95;;
34737;SDS011;39910;47.154;27.614;2023-04-03T07:48:42;11.48;;;10.88;;
34737;SDS011;39910;47.154;27.614;2023-04-03T07:51:08;10.95;;;10.35;;
34737;SDS011;39910;47.154;27.614;2023-04-03T07:53:33;11.13;;;10.52;;
34737;SDS011;39910;47.154;27.614;2023-04-03T07:55:59;10.88;;;10.27;;
34737;SDS011;39910;47.154;27.614;2023-04-03T07:58:24;11.57;;;10.93;;
34737;SDS011;39910;47.154;27.614;2023-04-03T08:00:50;11.05;;;10.45;;
34737;SDS011;39910;47.154;27.614;2023-04-03T08:03:16;11.48;;;10.88;;
34737;SDS011;39910;47.154;27.614;2023-04-03T08:05:43;11.70;;;11.05;;
34737;SDS011;39910;47.154;27.614;2023-04-03T08:08:09;11.95;;;11.25;;
34737;SDS011;39910;47.154;27.614;2023-04-03T08:10:35;12.45;;;11.75;;
34737;SDS011;39910;47.154;27.614;2023-04-03T08:13:01;10.77;;;10.20;;
34737;SDS011;39910;47.154;27.614;2023-04-03T08:15:26;11.52;;;10.93;;
34737;SDS011;39910;47.154;27.614;2023-04-03T08:17:52;10.77;;;10.18;;
34737;SDS011;39910;47.154;27.614;2023-04-03T08:20:17;11.75;;;11.07;;
34737;SDS011;39910;47.154;27.614;2023-04-03T08:22:42;11.77;;;11.07;;
34737;SDS011;39910;47.154;27.614;2023-04-03T08:25:08;11.23;;;10.63;;
34737;SDS011;39910;47.154;27.614;2023-04-03T08:27:33;11.23;;;10.63;;
34737;SDS011;39910;47.154;27.614;2023-04-03T08:29:59;10.82;;;10.23;;
34737;SDS011;39910;47.154;27.614;2023-04-03T08:32:24;11.27;;;10.68;;
34737;SDS011;39910;47.154;27.614;2023-04-03T08:34:50;11.23;;;10.63;;
34737;SDS011;39910;47.154;27.614;2023-04-03T08:37:16;9.90;;;9.40;;
34737;SDS011;39910;47.154;27.614;2023-04-03T08:39:41;12.10;;;11.40;;
34737;SDS011;39910;47.154;27.614;2023-04-03T08:42:53;11.18;;;10.57;;
34737;SDS011;39910;47.154;27.614;2023-04-03T08:44:58;10.60;;;10.05;;
34737;SDS011;39910;47.154;27.614;2023-04-03T08:49:57;10.45;;;9.95;;
34737;SDS011;39910;47.154;27.614;2023-04-03T08:54:53;10.73;;;10.15;;
34737;SDS011;39910;47.154;27.614;2023-04-03T08:57:20;10.98;;;10.38;;
34737;SDS011;39910;47.154;27.614;2023-04-03T08:59:48;11.18;;;10.57;;
34737;SDS011;39910;47.154;27.614;2023-04-03T09:02:24;10.13;;;9.63;;
34737;SDS011;39910;47.154;27.614;2023-04-03T09:04:51;11.20;;;10.60;;
34737;SDS011;39910;47.154;27.614;2023-04-03T09:07:20;11.13;;;10.52;;
34737;SDS011;39910;47.154;27.614;2023-04-03T09:09:47;10.75;;;10.15;;
34737;SDS011;39910;47.154;27.614;2023-04-03T09:12:17;10.85;;;10.25;;
34737;SDS011;39910;47.154;27.614;2023-04-03T09:22:38;10.07;;;9.57;;
34737;SDS011;39910;47.154;27.614;2023-04-03T09:25:08;11.02;;;10.43;;
34737;SDS011;39910;47.154;27.614;2023-04-03T09:27:35;11.27;;;10.68;;
34737;SDS011;39910;47.154;27.614;2023-04-03T09:30:00;9.30;;;8.90;;
34737;SDS011;39910;47.154;27.614;2023-04-03T09:32:33;10.57;;;10.07;;
34737;SDS011;39910;47.154;27.614;2023-04-03T09:34:59;10.50;;;10.00;;
34737;SDS011;39910;47.154;27.614;2023-04-03T09:37:43;10.93;;;10.32;;
34737;SDS011;39910;47.154;27.614;2023-04-03T09:40:30;11.35;;;10.75;;
34737;SDS011;39910;47.154;27.614;2023-04-03T09:43:37;9.90;;;9.40;;
34737;SDS011;39910;47.154;27.614;2023-04-03T09:45:43;11.48;;;10.88;;
34737;SDS011;39910;47.154;27.614;2023-04-03T09:48:15;11.27;;;10.68;;
34737;SDS011;39910;47.154;27.614;2023-04-03T09:53:33;10.45;;;9.95;;
34737;SDS011;39910;47.154;27.614;2023-04-03T09:55:59;10.25;;;9.75;;
34737;SDS011;39910;47.154;27.614;2023-04-03T09:58:29;10.25;;;9.75;;
34737;SDS011;39910;47.154;27.614;2023-04-03T10:00:58;9.88;;;9.38;;
34737;SDS011;39910;47.154;27.614;2023-04-03T10:03:25;10.00;;;9.50;;
34737;SDS011;39910;47.154;27.614;2023-04-03T10:05:51;10.20;;;9.70;;
34737;SDS011;39910;47.154;27.614;2023-04-03T10:08:21;11.50;;;10.90;;
34737;SDS011;39910;47.154;27.614;2023-04-03T10:10:49;11.20;;;10.60;;
34737;SDS011;39910;47.154;27.614;2023-04-03T10:13:29;11.48;;;10.88;;
34737;SDS011;39910;47.154;27.614;2023-04-03T10:15:56;10.20;;;9.70;;
34737;SDS011;39910;47.154;27.614;2023-04-03T10:20:55;12.18;;;11.48;;
34737;SDS011;39910;47.154;27.614;2023-04-03T10:28:48;11.75;;;11.13;;
34737;SDS011;39910;47.154;27.614;2023-04-03T10:31:33;12.13;;;11.40;;
34737;SDS011;39910;47.154;27.614;2023-04-03T10:36:55;12.32;;;11.63;;
34737;SDS011;39910;47.154;27.614;2023-04-03T10:41:59;11.75;;;11.15;;
34737;SDS011;39910;47.154;27.614;2023-04-03T10:46:53;11.85;;;11.25;;
34737;SDS011;39910;47.154;27.614;2023-04-03T10:51:52;11.02;;;10.43;;
34737;SDS011;39910;47.154;27.614;2023-04-03T10:56:50;11.38;;;10.77;;
34737;SDS011;39910;47.154;27.614;2023-04-03T11:02:05;10.52;;;10.02;;
34737;SDS011;39910;47.154;27.614;2023-04-03T11:04:33;11.05;;;10.45;;
34737;SDS011;39910;47.154;27.614;2023-04-03T11:07:42;11.82;;;11.18;;
34737;SDS011;39910;47.154;27.614;2023-04-03T11:09:49;10.95;;;10.35;;
34737;SDS011;39910;47.154;27.614;2023-04-03T11:12:26;10.88;;;10.30;;
34737;SDS011;39910;47.154;27.614;2023-04-03T11:14:55;10.98;;;10.40;;
34737;SDS011;39910;47.154;27.614;2023-04-03T11:17:24;11.05;;;10.45;;
34737;SDS011;39910;47.154;27.614;2023-04-03T11:22:23;11.23;;;10.63;;
34737;SDS011;39910;47.154;27.614;2023-04-03T11:24:55;10.45;;;9.95;;
34737;SDS011;39910;47.154;27.614;2023-04-03T11:27:22;10.85;;;10.25;;
34737;SDS011;39910;47.154;27.614;2023-04-03T11:29:50;11.07;;;10.48;;
34737;SDS011;39910;47.154;27.614;2023-04-03T11:40:06;10.95;;;10.35;;
34737;SDS011;39910;47.154;27.614;2023-04-03T11:42:35;11.18;;;10.57;;
34737;SDS011;39910;47.154;27.614;2023-04-03T11:47:50;11.65;;;11.05;;
34737;SDS011;39910;47.154;27.614;2023-04-03T12:16:04;11.52;;;10.93;;
34737;SDS011;39910;47.154;27.614;2023-04-03T12:21:08;10.45;;;9.95;;
34737;SDS011;39910;47.154;27.614;2023-04-03T12:23:34;11.73;;;11.02;;
34737;SDS011;39910;47.154;27.614;2023-04-03T12:26:02;11.02;;;10.43;;
34737;SDS011;39910;47.154;27.614;2023-04-03T12:28:29;11.05;;;10.45;;
34737;SDS011;39910;47.154;27.614;2023-04-03T12:30:54;11.50;;;10.90;;
34737;SDS011;39910;47.154;27.614;2023-04-03T12:33:24;11.38;;;10.77;;
34737;SDS011;39910;47.154;27.614;2023-04-03T12:36:04;11.23;;;10.63;;
34737;SDS011;39910;47.154;27.614;2023-04-03T12:38:38;11.57;;;10.98;;
34737;SDS011;39910;47.154;27.614;2023-04-03T12:47:16;10.77;;;10.18;;
34737;SDS011;39910;47.154;27.614;2023-04-03T12:52:04;11.68;;;11.00;;
34737;SDS011;39910;47.154;27.614;2023-04-03T12:54:37;11.68;;;11.02;;
34737;SDS011;39910;47.154;27.614;2023-04-03T12:59:36;12.40;;;11.70;;
34737;SDS011;39910;47.154;27.614;2023-04-03T13:02:01;12.32;;;11.63;;
34737;SDS011;39910;47.154;27.614;2023-04-03T13:04:27;11.95;;;11.25;;
34737;SDS011;39910;47.154;27.614;2023-04-03T13:06:52;11.20;;;10.60;;
34737;SDS011;39910;47.154;27.614;2023-04-03T13:09:23;11.50;;;10.90;;
34737;SDS011;39910;47.154;27.614;2023-04-03T13:11:49;11.82;;;11.15;;
34737;SDS011;39910;47.154;27.614;2023-04-03T13:14:16;10.85;;;10.25;;
34737;SDS011;39910;47.154;27.614;2023-04-03T13:16:43;10.82;;;10.23;;
34737;SDS011;39910;47.154;27.614;2023-04-03T13:19:17;11.70;;;11.02;;
34737;SDS011;39910;47.154;27.614;2023-04-03T13:21:43;13.38;;;12.57;;
34737;SDS011;39910;47.154;27.614;2023-04-03T13:24:09;11.30;;;10.70;;
34737;SDS011;39910;47.154;27.614;2023-04-03T13:26:35;11.35;;;10.75;;
34737;SDS011;39910;47.154;27.614;2023-04-03T13:29:07;11.52;;;10.93;;
34737;SDS011;39910;47.154;27.614;2023-04-03T13:31:42;12.15;;;11.45;;
34737;SDS011;39910;47.154;27.614;2023-04-03T13:36:38;11.95;;;11.25;;
34737;SDS011;39910;47.154;27.614;2023-04-03T13:41:31;11.48;;;10.88;;
34737;SDS011;39910;47.154;27.614;2023-04-03T13:43:56;10.77;;;10.18;;
34737;SDS011;39910;47.154;27.614;2023-04-03T13:46:23;11.63;;;11.00;;
34737;SDS011;39910;47.154;27.614;2023-04-03T13:48:50;11.50;;;10.90;;
34737;SDS011;39910;47.154;27.614;2023-04-03T13:51:18;10.77;;;10.18;;
34737;SDS011;39910;47.154;27.614;2023-04-03T13:53:47;12.02;;;11.32;;
34737;SDS011;39910;47.154;27.614;2023-04-03T13:56:18;11.77;;;11.10;;
34737;SDS011;39910;47.154;27.614;2023-04-03T13:58:53;12.70;;;11.98;;
34737;SDS011;39910;47.154;27.614;2023-04-03T14:01:20;11.15;;;10.55;;
34737;SDS011;39910;47.154;27.614;2023-04-03T14:03:47;11.70;;;11.00;;
34737;SDS011;39910;47.154;27.614;2023-04-03T14:06:16;10.93;;;10.32;;
34737;SDS011;39910;47.154;27.614;2023-04-03T14:08:42;12.27;;;11.57;;
34737;SDS011;39910;47.154;27.614;2023-04-03T14:11:09;11.10;;;10.50;;
34737;SDS011;39910;47.154;27.614;2023-04-03T14:13:37;12.02;;;11.32;;
34737;SDS011;39910;47.154;27.614;2023-04-03T14:16:02;11.65;;;11.02;;
34737;SDS011;39910;47.154;27.614;2023-04-03T14:18:28;11.07;;;10.48;;
34737;SDS011;39910;47.154;27.614;2023-04-03T14:20:53;11.60;;;10.95;;
34737;SDS011;39910;47.154;27.614;2023-04-03T14:23:18;11.35;;;10.75;;
34737;SDS011;39910;47.154;27.614;2023-04-03T14:25:45;12.40;;;11.70;;
34737;SDS011;39910;47.154;27.614;2023-04-03T14:28:17;11.23;;;10.63;;
34737;SDS011;39910;47.154;27.614;2023-04-03T14:30:43;11.27;;;10.68;;
34737;SDS011;39910;47.154;27.614;2023-04-03T14:33:10;11.30;;;10.70;;
34737;SDS011;39910;47.154;27.614;2023-04-03T14:35:37;11.38;;;10.75;;
34737;SDS011;39910;47.154;27.614;2023-04-03T14:38:05;10.82;;;10.23;;
34737;SDS011;39910;47.154;27.614;2023-04-03T14:40:34;11.05;;;10.45;;
34737;SDS011;39910;47.154;27.614;2023-04-03T14:42:59;11.05;;;10.45;;
34737;SDS011;39910;47.154;27.614;2023-04-03T14:45:25;11.30;;;10.70;;
34737;SDS011;39910;47.154;27.614;2023-04-03T14:47:52;11.10;;;10.50;;
34737;SDS011;39910;47.154;27.614;2023-04-03T14:50:19;11.05;;;10.45;;
34737;SDS011;39910;47.154;27.614;2023-04-03T14:52:46;11.05;;;10.45;;
34737;SDS011;39910;47.154;27.614;2023-04-03T14:55:13;12.25;;;11.55;;
34737;SDS011;39910;47.154;27.614;2023-04-03T14:57:39;11.27;;;10.68;;
34737;SDS011;39910;47.154;27.614;2023-04-03T15:00:06;11.02;;;10.43;;
34737;SDS011;39910;47.154;27.614;2023-04-03T15:02:33;10.93;;;10.32;;
34737;SDS011;39910;47.154;27.614;2023-04-03T15:05:00;11.13;;;10.52;;
34737;SDS011;39910;47.154;27.614;2023-04-03T15:07:26;11.27;;;10.68;;
34737;SDS011;39910;47.154;27.614;2023-04-03T15:09:52;10.75;;;10.15;;
34737;SDS011;39910;47.154;27.614;2023-04-03T15:12:18;10.23;;;9.73;;
34737;SDS011;39910;47.154;27.614;2023-04-03T15:14:43;10.27;;;9.77;;
34737;SDS011;39910;47.154;27.614;2023-04-03T15:17:12;11.02;;;10.43;;
34737;SDS011;39910;47.154;27.614;2023-04-03T15:19:39;11.23;;;10.63;;
34737;SDS011;39910;47.154;27.614;2023-04-03T15:22:04;10.27;;;9.77;;
34737;SDS011;39910;47.154;27.614;2023-04-03T15:24:30;10.00;;;9.50;;
34737;SDS011;39910;47.154;27.614;2023-04-03T15:26:55;9.77;;;9.27;;
34737;SDS011;39910;47.154;27.614;2023-04-03T15:29:20;10.00;;;9.50;;
34737;SDS011;39910;47.154;27.614;2023-04-03T15:31:46;10.98;;;10.38;;
34737;SDS011;39910;47.154;27.614;2023-04-03T15:34:13;10.00;;;9.50;;
34737;SDS011;39910;47.154;27.614;2023-04-03T15:36:39;9.55;;;9.05;;
34737;SDS011;39910;47.154;27.614;2023-04-03T15:39:04;11.10;;;10.50;;
34737;SDS011;39910;47.154;27.614;2023-04-03T15:41:29;11.27;;;10.68;;
34737;SDS011;39910;47.154;27.614;2023-04-03T15:43:55;11.30;;;10.70;;
34737;SDS011;39910;47.154;27.614;2023-04-03T15:46:20;10.27;;;9.77;;
34737;SDS011;39910;47.154;27.614;2023-04-03T15:48:45;12.82;;;12.02;;
34737;SDS011;39910;47.154;27.614;2023-04-03T15:51:11;11.10;;;10.50;;
34737;SDS011;39910;47.154;27.614;2023-04-03T15:53:36;11.68;;;10.98;;
34737;SDS011;39910;47.154;27.614;2023-04-03T15:56:01;11.18;;;10.57;;
34737;SDS011;39910;47.154;27.614;2023-04-03T15:58:27;11.13;;;10.52;;
34737;SDS011;39910;47.154;27.614;2023-04-03T16:00:52;11.32;;;10.73;;